sensor_id;sensor_type;location;lat;lon;timestamp;P1;durP1;ratioP1;P2;durP2;ratioP2
39098;SDS011;24844;52.380;7.018;2023-04-03T00:01:02;6.28;;;2.40;;
39098;SDS011;24844;52.380;7.018;2023-04-03T00:03:28;8.57;;;2.20;;
39098;SDS011;24844;52.380;7.018;2023-04-03T00:05:54;7.07;;;2.38;;
39098;SDS011;24844;52.380;7.018;2023-04-03T00:08:20;7.47;;;2.38;;
39098;SDS011;24844;52.380;7.018;2023-04-03T00:10:46;8.48;;;2.08;;
39098;SDS011;24844;52.380;7.018;2023-04-03T00:13:12;8.15;;;1.98;;
39098;SDS011;24844;52.380;7.018;2023-04-03T00:15:38;6.35;;;2.28;;
39098;SDS011;24844;52.380;7.018;2023-04-03T00:18:04;5.43;;;2.05;;
39098;SDS011;24844;52.380;7.018;2023-04-03T00:20:30;9.70;;;2.45;;
39098;SDS011;24844;52.380;7.018;2023-04-03T00:22:56;10.13;;;2.72;;
39098;SDS011;24844;52.380;7.018;2023-04-03T00:25:22;9.68;;;2.60;;
39098;SDS011;24844;52.380;7.018;2023-04-03T00:27:48;7.70;;;2.53;;
39098;SDS011;24844;52.380;7.018;2023-04-03T00:30:15;9.10;;;2.47;;
39098;SDS011;24844;52.380;7.018;2023-04-03T00:32:41;6.75;;;2.17;;
39098;SDS011;24844;52.380;7.018;2023-04-03T00:35:07;8.18;;;2.30;;
39098;SDS011;24844;52.380;7.018;2023-04-03T00:37:33;8.43;;;2.35;;
39098;SDS011;24844;52.380;7.018;2023-04-03T00:39:58;6.25;;;2.10;;
39098;SDS011;24844;52.380;7.018;2023-04-03T00:42:24;10.40;;;2.17;;
39098;SDS011;24844;52.380;7.018;2023-04-03T00:47:21;4.32;;;2.03;;
39098;SDS011;24844;52.380;7.018;2023-04-03T00:49:48;6.30;;;2.30;;
39098;SDS011;24844;52.380;7.018;2023-04-03T00:52:16;6.82;;;2.38;;
39098;SDS011;24844;52.380;7.018;2023-04-03T00:57:11;6.65;;;2.15;;
39098;SDS011;24844;52.380;7.018;2023-04-03T00:59:41;8.55;;;2.30;;
39098;SDS011;24844;52.380;7.018;2023-04-03T01:02:11;10.57;;;2.63;;
39098;SDS011;24844;52.380;7.018;2023-04-03T01:04:41;11.05;;;2.47;;
39098;SDS011;24844;52.380;7.018;2023-04-03T01:07:28;8.43;;;2.92;;
39098;SDS011;24844;52.380;7.018;2023-04-03T01:09:56;7.60;;;2.53;;
39098;SDS011;24844;52.380;7.018;2023-04-03T01:12:28;6.65;;;2.47;;
39098;SDS011;24844;52.380;7.018;2023-04-03T01:14:56;9.10;;;2.45;;
39098;SDS011;24844;52.380;7.018;2023-04-03T01:17:34;9.50;;;2.42;;
39098;SDS011;24844;52.380;7.018;2023-04-03T01:25:21;7.68;;;2.55;;
39098;SDS011;24844;52.380;7.018;2023-04-03T01:27:47;7.97;;;2.53;;
39098;SDS011;24844;52.380;7.018;2023-04-03T01:30:12;8.40;;;2.85;;
39098;SDS011;24844;52.380;7.018;2023-04-03T01:32:41;7.30;;;2.72;;
39098;SDS011;24844;52.380;7.018;2023-04-03T01:35:07;8.60;;;2.75;;
39098;SDS011;24844;52.380;7.018;2023-04-03T01:37:34;6.78;;;2.42;;
39098;SDS011;24844;52.380;7.018;2023-04-03T01:40:00;9.30;;;2.80;;
39098;SDS011;24844;52.380;7.018;2023-04-03T01:42:25;6.88;;;2.40;;
39098;SDS011;24844;52.380;7.018;2023-04-03T01:44:51;11.05;;;2.50;;
39098;SDS011;24844;52.380;7.018;2023-04-03T01:47:16;6.93;;;2.30;;
39098;SDS011;24844;52.380;7.018;2023-04-03T01:49:42;7.43;;;2.45;;
39098;SDS011;24844;52.380;7.018;2023-04-03T01:52:08;6.30;;;2.28;;
39098;SDS011;24844;52.380;7.018;2023-04-03T01:54:33;7.70;;;2.30;;
39098;SDS011;24844;52.380;7.018;2023-04-03T01:56:59;8.52;;;2.35;;
39098;SDS011;24844;52.380;7.018;2023-04-03T01:59:24;8.00;;;2.40;;
39098;SDS011;24844;52.380;7.018;2023-04-03T02:01:50;8.15;;;2.40;;
39098;SDS011;24844;52.380;7.018;2023-04-03T02:04:15;7.38;;;2.55;;
39098;SDS011;24844;52.380;7.018;2023-04-03T02:06:41;5.53;;;2.40;;
39098;SDS011;24844;52.380;7.018;2023-04-03T02:09:07;9.15;;;2.58;;
39098;SDS011;24844;52.380;7.018;2023-04-03T02:11:32;9.57;;;2.85;;
39098;SDS011;24844;52.380;7.018;2023-04-03T02:13:58;14.65;;;3.00;;
39098;SDS011;24844;52.380;7.018;2023-04-03T02:16:23;8.43;;;2.72;;
39098;SDS011;24844;52.380;7.018;2023-04-03T02:18:49;7.95;;;3.25;;
39098;SDS011;24844;52.380;7.018;2023-04-03T02:21:15;10.82;;;2.95;;
39098;SDS011;24844;52.380;7.018;2023-04-03T02:23:41;9.18;;;2.50;;
39098;SDS011;24844;52.380;7.018;2023-04-03T02:26:10;11.73;;;2.63;;
39098;SDS011;24844;52.380;7.018;2023-04-03T02:28:38;8.60;;;2.58;;
39098;SDS011;24844;52.380;7.018;2023-04-03T02:31:04;9.02;;;2.95;;
39098;SDS011;24844;52.380;7.018;2023-04-03T02:33:33;8.18;;;3.20;;
39098;SDS011;24844;52.380;7.018;2023-04-03T02:36:01;8.23;;;2.80;;
39098;SDS011;24844;52.380;7.018;2023-04-03T02:38:29;8.60;;;3.00;;
39098;SDS011;24844;52.380;7.018;2023-04-03T02:41:01;10.88;;;3.13;;
39098;SDS011;24844;52.380;7.018;2023-04-03T02:43:31;8.25;;;3.10;;
39098;SDS011;24844;52.380;7.018;2023-04-03T02:45:57;10.73;;;2.78;;
39098;SDS011;24844;52.380;7.018;2023-04-03T02:48:23;9.05;;;3.40;;
39098;SDS011;24844;52.380;7.018;2023-04-03T02:50:49;11.75;;;2.63;;
39098;SDS011;24844;52.380;7.018;2023-04-03T02:53:15;7.95;;;2.92;;
39098;SDS011;24844;52.380;7.018;2023-04-03T02:55:40;10.98;;;2.95;;
39098;SDS011;24844;52.380;7.018;2023-04-03T02:58:06;5.68;;;2.45;;
39098;SDS011;24844;52.380;7.018;2023-04-03T03:00:32;5.72;;;2.78;;
39098;SDS011;24844;52.380;7.018;2023-04-03T03:02:58;7.85;;;2.17;;
39098;SDS011;24844;52.380;7.018;2023-04-03T03:05:24;5.57;;;2.20;;
39098;SDS011;24844;52.380;7.018;2023-04-03T03:07:51;7.00;;;2.22;;
39098;SDS011;24844;52.380;7.018;2023-04-03T03:10:17;8.30;;;2.42;;
39098;SDS011;24844;52.380;7.018;2023-04-03T03:12:43;9.77;;;2.40;;
39098;SDS011;24844;52.380;7.018;2023-04-03T03:15:08;5.88;;;2.28;;
39098;SDS011;24844;52.380;7.018;2023-04-03T03:17:34;10.70;;;2.20;;
39098;SDS011;24844;52.380;7.018;2023-04-03T03:20:01;4.47;;;2.10;;
39098;SDS011;24844;52.380;7.018;2023-04-03T03:22:27;7.97;;;2.80;;
39098;SDS011;24844;52.380;7.018;2023-04-03T03:24:53;10.93;;;2.90;;
39098;SDS011;24844;52.380;7.018;2023-04-03T03:27:19;11.63;;;2.65;;
39098;SDS011;24844;52.380;7.018;2023-04-03T03:29:45;7.53;;;2.47;;
39098;SDS011;24844;52.380;7.018;2023-04-03T03:32:11;7.68;;;2.95;;
39098;SDS011;24844;52.380;7.018;2023-04-03T03:34:36;7.32;;;2.40;;
39098;SDS011;24844;52.380;7.018;2023-04-03T03:37:02;6.97;;;2.63;;
39098;SDS011;24844;52.380;7.018;2023-04-03T03:39:28;6.50;;;2.30;;
39098;SDS011;24844;52.380;7.018;2023-04-03T03:41:54;6.20;;;2.30;;
39098;SDS011;24844;52.380;7.018;2023-04-03T03:44:19;6.60;;;2.45;;
39098;SDS011;24844;52.380;7.018;2023-04-03T03:46:45;5.75;;;2.28;;
39098;SDS011;24844;52.380;7.018;2023-04-03T03:49:11;10.63;;;2.60;;
39098;SDS011;24844;52.380;7.018;2023-04-03T03:51:37;8.15;;;2.38;;
39098;SDS011;24844;52.380;7.018;2023-04-03T03:54:03;6.32;;;2.90;;
39098;SDS011;24844;52.380;7.018;2023-04-03T03:56:29;9.35;;;2.97;;
39098;SDS011;24844;52.380;7.018;2023-04-03T03:58:55;7.75;;;3.08;;
39098;SDS011;24844;52.380;7.018;2023-04-03T04:01:21;9.88;;;3.47;;
39098;SDS011;24844;52.380;7.018;2023-04-03T04:03:48;8.40;;;2.85;;
39098;SDS011;24844;52.380;7.018;2023-04-03T04:06:14;10.48;;;2.95;;
39098;SDS011;24844;52.380;7.018;2023-04-03T04:08:40;7.30;;;3.05;;
39098;SDS011;24844;52.380;7.018;2023-04-03T04:11:06;13.38;;;3.72;;
39098;SDS011;24844;52.380;7.018;2023-04-03T04:13:32;10.35;;;3.10;;
39098;SDS011;24844;52.380;7.018;2023-04-03T04:15:58;16.92;;;3.83;;
39098;SDS011;24844;52.380;7.018;2023-04-03T04:18:24;10.43;;;3.35;;
39098;SDS011;24844;52.380;7.018;2023-04-03T04:20:49;12.32;;;3.33;;
39098;SDS011;24844;52.380;7.018;2023-04-03T04:23:15;12.77;;;3.10;;
39098;SDS011;24844;52.380;7.018;2023-04-03T04:25:43;10.40;;;3.40;;
39098;SDS011;24844;52.380;7.018;2023-04-03T04:28:10;14.25;;;3.90;;
39098;SDS011;24844;52.380;7.018;2023-04-03T04:30:36;9.25;;;3.10;;
39098;SDS011;24844;52.380;7.018;2023-04-03T04:33:01;11.48;;;3.30;;
39098;SDS011;24844;52.380;7.018;2023-04-03T04:35:27;8.77;;;3.40;;
39098;SDS011;24844;52.380;7.018;2023-04-03T04:37:53;10.55;;;3.08;;
39098;SDS011;24844;52.380;7.018;2023-04-03T04:40:18;9.63;;;3.33;;
39098;SDS011;24844;52.380;7.018;2023-04-03T04:42:45;9.65;;;3.25;;
39098;SDS011;24844;52.380;7.018;2023-04-03T04:45:11;7.82;;;3.05;;
39098;SDS011;24844;52.380;7.018;2023-04-03T04:47:36;11.63;;;3.15;;
39098;SDS011;24844;52.380;7.018;2023-04-03T04:50:02;9.48;;;3.42;;
39098;SDS011;24844;52.380;7.018;2023-04-03T04:52:28;6.60;;;2.70;;
39098;SDS011;24844;52.380;7.018;2023-04-03T04:54:53;8.50;;;2.95;;
39098;SDS011;24844;52.380;7.018;2023-04-03T04:57:19;11.88;;;3.45;;
39098;SDS011;24844;52.380;7.018;2023-04-03T04:59:45;9.57;;;2.78;;
39098;SDS011;24844;52.380;7.018;2023-04-03T05:02:10;12.93;;;4.00;;
39098;SDS011;24844;52.380;7.018;2023-04-03T05:04:36;7.40;;;3.58;;
39098;SDS011;24844;52.380;7.018;2023-04-03T05:07:01;9.75;;;3.25;;
39098;SDS011;24844;52.380;7.018;2023-04-03T05:09:27;8.68;;;3.15;;
39098;SDS011;24844;52.380;7.018;2023-04-03T05:11:53;10.43;;;3.00;;
39098;SDS011;24844;52.380;7.018;2023-04-03T05:14:18;9.02;;;3.72;;
39098;SDS011;24844;52.380;7.018;2023-04-03T05:16:44;8.65;;;3.47;;
39098;SDS011;24844;52.380;7.018;2023-04-03T05:19:10;11.07;;;3.50;;
39098;SDS011;24844;52.380;7.018;2023-04-03T05:21:35;5.60;;;2.95;;
39098;SDS011;24844;52.380;7.018;2023-04-03T05:24:01;8.52;;;3.20;;
39098;SDS011;24844;52.380;7.018;2023-04-03T05:26:28;14.00;;;3.55;;
39098;SDS011;24844;52.380;7.018;2023-04-03T05:28:54;8.43;;;2.92;;
39098;SDS011;24844;52.380;7.018;2023-04-03T05:31:20;14.65;;;3.53;;
39098;SDS011;24844;52.380;7.018;2023-04-03T05:33:46;8.52;;;3.17;;
39098;SDS011;24844;52.380;7.018;2023-04-03T05:36:12;8.10;;;2.90;;
39098;SDS011;24844;52.380;7.018;2023-04-03T05:38:38;11.60;;;3.10;;
39098;SDS011;24844;52.380;7.018;2023-04-03T05:41:04;14.02;;;3.28;;
39098;SDS011;24844;52.380;7.018;2023-04-03T05:43:30;11.35;;;2.70;;
39098;SDS011;24844;52.380;7.018;2023-04-03T05:45:55;12.98;;;3.33;;
39098;SDS011;24844;52.380;7.018;2023-04-03T05:48:21;13.73;;;2.88;;
39098;SDS011;24844;52.380;7.018;2023-04-03T05:50:47;10.75;;;2.88;;
39098;SDS011;24844;52.380;7.018;2023-04-03T05:53:14;9.75;;;2.65;;
39098;SDS011;24844;52.380;7.018;2023-04-03T05:55:47;14.90;;;2.90;;
39098;SDS011;24844;52.380;7.018;2023-04-03T05:58:12;9.95;;;2.90;;
39098;SDS011;24844;52.380;7.018;2023-04-03T06:00:38;9.15;;;3.10;;
39098;SDS011;24844;52.380;7.018;2023-04-03T06:03:03;8.80;;;2.28;;
39098;SDS011;24844;52.380;7.018;2023-04-03T06:05:29;10.15;;;3.00;;
39098;SDS011;24844;52.380;7.018;2023-04-03T06:07:55;8.75;;;2.28;;
39098;SDS011;24844;52.380;7.018;2023-04-03T06:10:22;10.07;;;2.75;;
39098;SDS011;24844;52.380;7.018;2023-04-03T06:12:48;10.10;;;2.95;;
39098;SDS011;24844;52.380;7.018;2023-04-03T06:15:13;9.75;;;2.67;;
39098;SDS011;24844;52.380;7.018;2023-04-03T06:17:40;12.20;;;2.50;;
39098;SDS011;24844;52.380;7.018;2023-04-03T06:20:06;11.32;;;2.47;;
39098;SDS011;24844;52.380;7.018;2023-04-03T06:22:32;9.45;;;2.70;;
39098;SDS011;24844;52.380;7.018;2023-04-03T06:24:58;11.10;;;2.95;;
39098;SDS011;24844;52.380;7.018;2023-04-03T06:27:23;12.18;;;2.78;;
39098;SDS011;24844;52.380;7.018;2023-04-03T06:29:49;9.70;;;2.78;;
39098;SDS011;24844;52.380;7.018;2023-04-03T06:32:15;7.22;;;2.53;;
39098;SDS011;24844;52.380;7.018;2023-04-03T06:34:41;7.95;;;2.45;;
39098;SDS011;24844;52.380;7.018;2023-04-03T06:37:20;8.35;;;2.33;;
39098;SDS011;24844;52.380;7.018;2023-04-03T06:39:47;10.10;;;3.38;;
39098;SDS011;24844;52.380;7.018;2023-04-03T06:42:12;9.27;;;2.20;;
39098;SDS011;24844;52.380;7.018;2023-04-03T06:44:38;6.60;;;1.83;;
39098;SDS011;24844;52.380;7.018;2023-04-03T06:47:04;9.23;;;2.58;;
39098;SDS011;24844;52.380;7.018;2023-04-03T06:49:30;7.22;;;2.42;;
39098;SDS011;24844;52.380;7.018;2023-04-03T06:51:56;7.72;;;2.05;;
39098;SDS011;24844;52.380;7.018;2023-04-03T06:54:22;9.30;;;1.90;;
39098;SDS011;24844;52.380;7.018;2023-04-03T06:56:47;10.73;;;2.38;;
39098;SDS011;24844;52.380;7.018;2023-04-03T06:59:13;5.90;;;1.88;;
39098;SDS011;24844;52.380;7.018;2023-04-03T07:01:40;10.35;;;2.75;;
39098;SDS011;24844;52.380;7.018;2023-04-03T07:04:05;9.40;;;2.08;;
39098;SDS011;24844;52.380;7.018;2023-04-03T07:06:32;9.32;;;2.33;;
39098;SDS011;24844;52.380;7.018;2023-04-03T07:08:58;11.18;;;2.35;;
39098;SDS011;24844;52.380;7.018;2023-04-03T07:11:25;7.03;;;1.92;;
39098;SDS011;24844;52.380;7.018;2023-04-03T07:13:51;4.82;;;1.45;;
39098;SDS011;24844;52.380;7.018;2023-04-03T07:16:17;5.07;;;1.73;;
39098;SDS011;24844;52.380;7.018;2023-04-03T07:18:42;8.30;;;1.58;;
39098;SDS011;24844;52.380;7.018;2023-04-03T07:21:08;7.72;;;1.90;;
39098;SDS011;24844;52.380;7.018;2023-04-03T07:23:33;7.00;;;1.67;;
39098;SDS011;24844;52.380;7.018;2023-04-03T07:25:59;6.60;;;1.45;;
39098;SDS011;24844;52.380;7.018;2023-04-03T07:28:25;6.85;;;1.73;;
39098;SDS011;24844;52.380;7.018;2023-04-03T07:33:18;5.03;;;1.50;;
39098;SDS011;24844;52.380;7.018;2023-04-03T07:35:44;4.90;;;1.73;;
39098;SDS011;24844;52.380;7.018;2023-04-03T07:38:10;3.30;;;1.60;;
39098;SDS011;24844;52.380;7.018;2023-04-03T07:40:37;6.38;;;1.60;;
39098;SDS011;24844;52.380;7.018;2023-04-03T07:43:03;6.53;;;1.50;;
39098;SDS011;24844;52.380;7.018;2023-04-03T07:45:30;4.60;;;1.25;;
39098;SDS011;24844;52.380;7.018;2023-04-03T07:47:56;4.32;;;1.40;;
39098;SDS011;24844;52.380;7.018;2023-04-03T07:50:22;5.32;;;1.60;;
39098;SDS011;24844;52.380;7.018;2023-04-03T07:52:48;7.13;;;1.30;;
39098;SDS011;24844;52.380;7.018;2023-04-03T07:55:15;6.95;;;1.33;;
39098;SDS011;24844;52.380;7.018;2023-04-03T07:57:41;5.60;;;1.25;;
39098;SDS011;24844;52.380;7.018;2023-04-03T08:00:07;4.38;;;1.05;;
39098;SDS011;24844;52.380;7.018;2023-04-03T08:02:33;4.65;;;0.90;;
39098;SDS011;24844;52.380;7.018;2023-04-03T08:04:59;4.20;;;1.02;;
39098;SDS011;24844;52.380;7.018;2023-04-03T08:07:25;5.55;;;1.17;;
39098;SDS011;24844;52.380;7.018;2023-04-03T08:09:51;3.55;;;0.90;;
39098;SDS011;24844;52.380;7.018;2023-04-03T08:12:17;5.43;;;1.27;;
39098;SDS011;24844;52.380;7.018;2023-04-03T08:14:43;4.78;;;1.25;;
39098;SDS011;24844;52.380;7.018;2023-04-03T08:17:08;4.32;;;1.20;;
39098;SDS011;24844;52.380;7.018;2023-04-03T08:19:37;4.38;;;1.15;;
39098;SDS011;24844;52.380;7.018;2023-04-03T08:22:03;4.35;;;1.17;;
39098;SDS011;24844;52.380;7.018;2023-04-03T08:24:29;2.53;;;0.90;;
39098;SDS011;24844;52.380;7.018;2023-04-03T08:26:56;4.20;;;1.52;;
39098;SDS011;24844;52.380;7.018;2023-04-03T08:29:21;3.78;;;0.82;;
39098;SDS011;24844;52.380;7.018;2023-04-03T08:31:47;4.65;;;0.90;;
39098;SDS011;24844;52.380;7.018;2023-04-03T08:34:14;5.03;;;1.20;;
39098;SDS011;24844;52.380;7.018;2023-04-03T08:36:41;3.65;;;0.90;;
39098;SDS011;24844;52.380;7.018;2023-04-03T08:39:06;3.88;;;1.20;;
39098;SDS011;24844;52.380;7.018;2023-04-03T08:44:01;2.08;;;0.90;;
39098;SDS011;24844;52.380;7.018;2023-04-03T08:49:39;5.65;;;1.10;;
39098;SDS011;24844;52.380;7.018;2023-04-03T08:57:32;4.57;;;1.53;;
39098;SDS011;24844;52.380;7.018;2023-04-03T09:00:03;3.38;;;0.90;;
39098;SDS011;24844;52.380;7.018;2023-04-03T09:02:34;2.28;;;0.80;;
39098;SDS011;24844;52.380;7.018;2023-04-03T09:10:33;1.45;;;0.70;;
39098;SDS011;24844;52.380;7.018;2023-04-03T09:13:06;3.13;;;0.70;;
39098;SDS011;24844;52.380;7.018;2023-04-03T09:15:38;2.08;;;0.90;;
39098;SDS011;24844;52.380;7.018;2023-04-03T09:18:16;2.50;;;0.80;;
39098;SDS011;24844;52.380;7.018;2023-04-03T09:20:48;2.63;;;0.90;;
39098;SDS011;24844;52.380;7.018;2023-04-03T09:23:25;1.55;;;0.73;;
39098;SDS011;24844;52.380;7.018;2023-04-03T09:26:02;2.90;;;0.68;;
39098;SDS011;24844;52.380;7.018;2023-04-03T09:28:32;3.47;;;0.90;;
39098;SDS011;24844;52.380;7.018;2023-04-03T09:31:06;1.90;;;0.90;;
39098;SDS011;24844;52.380;7.018;2023-04-03T09:33:50;3.92;;;0.90;;
39098;SDS011;24844;52.380;7.018;2023-04-03T09:39:18;2.95;;;1.00;;
39098;SDS011;24844;52.380;7.018;2023-04-03T09:42:04;1.92;;;0.80;;
39098;SDS011;24844;52.380;7.018;2023-04-03T09:44:40;1.75;;;0.80;;
39098;SDS011;24844;52.380;7.018;2023-04-03T09:52:39;1.65;;;0.60;;
39098;SDS011;24844;52.380;7.018;2023-04-03T09:55:13;3.65;;;0.60;;
39098;SDS011;24844;52.380;7.018;2023-04-03T09:57:44;2.78;;;0.98;;
39098;SDS011;24844;52.380;7.018;2023-04-03T10:00:21;2.40;;;0.60;;
39098;SDS011;24844;52.380;7.018;2023-04-03T10:02:51;2.42;;;0.60;;
39098;SDS011;24844;52.380;7.018;2023-04-03T10:07:54;3.28;;;0.77;;
39098;SDS011;24844;52.380;7.018;2023-04-03T10:10:38;1.45;;;0.60;;
39098;SDS011;24844;52.380;7.018;2023-04-03T10:13:24;2.67;;;0.88;;
39098;SDS011;24844;52.380;7.018;2023-04-03T10:16:00;3.50;;;1.20;;
39098;SDS011;24844;52.380;7.018;2023-04-03T10:18:46;2.40;;;0.90;;
39098;SDS011;24844;52.380;7.018;2023-04-03T10:24:19;3.10;;;0.68;;
39098;SDS011;24844;52.380;7.018;2023-04-03T10:32:00;1.92;;;0.70;;
39098;SDS011;24844;52.380;7.018;2023-04-03T10:34:40;2.45;;;1.05;;
39098;SDS011;24844;52.380;7.018;2023-04-03T10:42:33;1.45;;;0.68;;
39098;SDS011;24844;52.380;7.018;2023-04-03T10:45:30;3.33;;;1.05;;
39098;SDS011;24844;52.380;7.018;2023-04-03T10:48:05;2.20;;;0.70;;
39098;SDS011;24844;52.380;7.018;2023-04-03T10:50:43;1.85;;;0.90;;
39098;SDS011;24844;52.380;7.018;2023-04-03T10:53:31;2.05;;;0.77;;
39098;SDS011;24844;52.380;7.018;2023-04-03T10:56:31;2.63;;;1.05;;
39098;SDS011;24844;52.380;7.018;2023-04-03T11:01:44;3.50;;;1.50;;
39098;SDS011;24844;52.380;7.018;2023-04-03T11:04:13;3.45;;;1.45;;
39098;SDS011;24844;52.380;7.018;2023-04-03T11:06:49;3.83;;;1.00;;
39098;SDS011;24844;52.380;7.018;2023-04-03T11:09:29;5.30;;;1.50;;
39098;SDS011;24844;52.380;7.018;2023-04-03T11:12:01;2.38;;;1.15;;
39098;SDS011;24844;52.380;7.018;2023-04-03T11:14:34;4.38;;;1.20;;
39098;SDS011;24844;52.380;7.018;2023-04-03T11:24:51;2.08;;;1.08;;
39098;SDS011;24844;52.380;7.018;2023-04-03T11:27:42;3.85;;;1.45;;
39098;SDS011;24844;52.380;7.018;2023-04-03T11:35:48;3.65;;;1.33;;
39098;SDS011;24844;52.380;7.018;2023-04-03T11:38:21;2.90;;;1.30;;
39098;SDS011;24844;52.380;7.018;2023-04-03T11:40:51;3.00;;;1.15;;
39098;SDS011;24844;52.380;7.018;2023-04-03T11:43:26;5.40;;;1.45;;
39098;SDS011;24844;52.380;7.018;2023-04-03T11:50:57;4.20;;;1.20;;
39098;SDS011;24844;52.380;7.018;2023-04-03T11:53:41;3.22;;;1.40;;
39098;SDS011;24844;52.380;7.018;2023-04-03T12:01:54;4.15;;;1.40;;
39098;SDS011;24844;52.380;7.018;2023-04-03T12:04:21;4.70;;;1.27;;
39098;SDS011;24844;52.380;7.018;2023-04-03T12:06:52;2.65;;;1.40;;
39098;SDS011;24844;52.380;7.018;2023-04-03T12:17:20;1.08;;;0.57;;
39098;SDS011;24844;52.380;7.018;2023-04-03T12:19:51;2.45;;;0.85;;
39098;SDS011;24844;52.380;7.018;2023-04-03T12:22:17;3.88;;;1.58;;
39098;SDS011;24844;52.380;7.018;2023-04-03T12:24:46;3.67;;;1.10;;
39098;SDS011;24844;52.380;7.018;2023-04-03T12:27:38;4.50;;;1.33;;
39098;SDS011;24844;52.380;7.018;2023-04-03T12:30:19;3.88;;;1.58;;
39098;SDS011;24844;52.380;7.018;2023-04-03T12:35:56;4.90;;;1.35;;
39098;SDS011;24844;52.380;7.018;2023-04-03T12:46:46;6.20;;;1.40;;
39098;SDS011;24844;52.380;7.018;2023-04-03T12:52:00;3.10;;;1.25;;
39098;SDS011;24844;52.380;7.018;2023-04-03T12:54:41;2.22;;;0.90;;
39098;SDS011;24844;52.380;7.018;2023-04-03T12:57:26;4.10;;;1.08;;
39098;SDS011;24844;52.380;7.018;2023-04-03T12:59:52;7.57;;;1.35;;
39098;SDS011;24844;52.380;7.018;2023-04-03T13:02:28;3.67;;;1.48;;
39098;SDS011;24844;52.380;7.018;2023-04-03T13:04:57;4.38;;;1.10;;
39098;SDS011;24844;52.380;7.018;2023-04-03T13:07:25;3.38;;;1.10;;
39098;SDS011;24844;52.380;7.018;2023-04-03T13:09:56;3.83;;;1.42;;
39098;SDS011;24844;52.380;7.018;2023-04-03T13:12:25;4.75;;;1.00;;
39098;SDS011;24844;52.380;7.018;2023-04-03T13:14:52;2.50;;;1.23;;
39098;SDS011;24844;52.380;7.018;2023-04-03T13:17:19;2.65;;;1.00;;
39098;SDS011;24844;52.380;7.018;2023-04-03T13:19:46;2.60;;;1.35;;
39098;SDS011;24844;52.380;7.018;2023-04-03T13:22:26;3.97;;;0.90;;
39098;SDS011;24844;52.380;7.018;2023-04-03T13:25:09;3.65;;;1.17;;
39098;SDS011;24844;52.380;7.018;2023-04-03T13:27:38;3.63;;;1.23;;
39098;SDS011;24844;52.380;7.018;2023-04-03T13:30:17;3.13;;;1.20;;
39098;SDS011;24844;52.380;7.018;2023-04-03T13:32:59;4.97;;;1.33;;
39098;SDS011;24844;52.380;7.018;2023-04-03T13:35:32;6.85;;;1.13;;
39098;SDS011;24844;52.380;7.018;2023-04-03T13:40:55;4.70;;;1.10;;
39098;SDS011;24844;52.380;7.018;2023-04-03T13:43:26;3.78;;;1.38;;
39098;SDS011;24844;52.380;7.018;2023-04-03T13:45:54;4.68;;;1.30;;
39098;SDS011;24844;52.380;7.018;2023-04-03T13:48:47;2.88;;;1.10;;
39098;SDS011;24844;52.380;7.018;2023-04-03T13:51:21;2.30;;;1.00;;
39098;SDS011;24844;52.380;7.018;2023-04-03T13:53:48;3.20;;;1.20;;
39098;SDS011;24844;52.380;7.018;2023-04-03T13:56:23;3.65;;;1.40;;
39098;SDS011;24844;52.380;7.018;2023-04-03T14:01:41;5.93;;;1.00;;
39098;SDS011;24844;52.380;7.018;2023-04-03T14:04:18;5.47;;;1.42;;
39098;SDS011;24844;52.380;7.018;2023-04-03T14:06:52;3.33;;;0.90;;
39098;SDS011;24844;52.380;7.018;2023-04-03T14:09:19;4.75;;;1.40;;
39098;SDS011;24844;52.380;7.018;2023-04-03T14:11:47;2.97;;;1.10;;
39098;SDS011;24844;52.380;7.018;2023-04-03T14:14:15;2.93;;;1.10;;
39098;SDS011;24844;52.380;7.018;2023-04-03T14:16:46;2.10;;;0.90;;
39098;SDS011;24844;52.380;7.018;2023-04-03T14:19:23;4.78;;;1.52;;
39098;SDS011;24844;52.380;7.018;2023-04-03T14:21:58;4.35;;;1.20;;
39098;SDS011;24844;52.380;7.018;2023-04-03T14:24:25;4.97;;;1.58;;
39098;SDS011;24844;52.380;7.018;2023-04-03T14:26:52;2.78;;;1.20;;
39098;SDS011;24844;52.380;7.018;2023-04-03T14:29:19;5.35;;;1.40;;
39098;SDS011;24844;52.380;7.018;2023-04-03T14:31:47;4.15;;;1.10;;
39098;SDS011;24844;52.380;7.018;2023-04-03T14:34:13;6.20;;;1.33;;
39098;SDS011;24844;52.380;7.018;2023-04-03T14:36:40;3.33;;;1.25;;
39098;SDS011;24844;52.380;7.018;2023-04-03T14:39:10;3.58;;;1.23;;
39098;SDS011;24844;52.380;7.018;2023-04-03T14:41:42;5.68;;;1.80;;
39098;SDS011;24844;52.380;7.018;2023-04-03T14:44:08;6.22;;;1.30;;
39098;SDS011;24844;52.380;7.018;2023-04-03T14:46:37;4.60;;;1.00;;
39098;SDS011;24844;52.380;7.018;2023-04-03T14:49:15;2.90;;;1.20;;
39098;SDS011;24844;52.380;7.018;2023-04-03T14:51:45;3.83;;;1.20;;
39098;SDS011;24844;52.380;7.018;2023-04-03T14:54:12;3.63;;;1.35;;
39098;SDS011;24844;52.380;7.018;2023-04-03T14:56:39;5.75;;;1.55;;
39098;SDS011;24844;52.380;7.018;2023-04-03T14:59:08;6.65;;;1.58;;
39098;SDS011;24844;52.380;7.018;2023-04-03T15:01:39;5.65;;;1.48;;
39098;SDS011;24844;52.380;7.018;2023-04-03T15:04:09;3.05;;;1.30;;
39098;SDS011;24844;52.380;7.018;2023-04-03T15:06:40;19.80;;;9.07;;
39098;SDS011;24844;52.380;7.018;2023-04-03T15:09:13;7.97;;;3.30;;
39098;SDS011;24844;52.380;7.018;2023-04-03T15:11:50;4.50;;;1.60;;
39098;SDS011;24844;52.380;7.018;2023-04-03T15:14:17;5.55;;;1.27;;
39098;SDS011;24844;52.380;7.018;2023-04-03T15:16:43;4.75;;;1.40;;
39098;SDS011;24844;52.380;7.018;2023-04-03T15:19:09;7.50;;;1.30;;
39098;SDS011;24844;52.380;7.018;2023-04-03T15:21:36;4.18;;;1.20;;
39098;SDS011;24844;52.380;7.018;2023-04-03T15:24:02;4.63;;;1.33;;
39098;SDS011;24844;52.380;7.018;2023-04-03T15:26:28;3.25;;;1.17;;
39098;SDS011;24844;52.380;7.018;2023-04-03T15:28:54;2.97;;;1.20;;
39098;SDS011;24844;52.380;7.018;2023-04-03T15:31:20;3.88;;;1.70;;
39098;SDS011;24844;52.380;7.018;2023-04-03T15:33:45;9.65;;;1.30;;
39098;SDS011;24844;52.380;7.018;2023-04-03T15:36:11;3.05;;;1.15;;
39098;SDS011;24844;52.380;7.018;2023-04-03T15:38:37;3.88;;;1.20;;
39098;SDS011;24844;52.380;7.018;2023-04-03T15:41:03;4.75;;;1.70;;
39098;SDS011;24844;52.380;7.018;2023-04-03T15:43:29;4.18;;;1.45;;
39098;SDS011;24844;52.380;7.018;2023-04-03T15:45:56;5.82;;;1.40;;
39098;SDS011;24844;52.380;7.018;2023-04-03T15:48:23;5.22;;;1.27;;
39098;SDS011;24844;52.380;7.018;2023-04-03T15:50:49;7.03;;;2.42;;
39098;SDS011;24844;52.380;7.018;2023-04-03T15:53:14;4.57;;;1.33;;
39098;SDS011;24844;52.380;7.018;2023-04-03T15:55:40;2.83;;;1.08;;
39098;SDS011;24844;52.380;7.018;2023-04-03T15:58:06;5.18;;;1.10;;
39098;SDS011;24844;52.380;7.018;2023-04-03T16:00:32;3.50;;;1.20;;
39098;SDS011;24844;52.380;7.018;2023-04-03T16:02:59;3.17;;;1.05;;
39098;SDS011;24844;52.380;7.018;2023-04-03T16:05:29;3.50;;;1.60;;
39098;SDS011;24844;52.380;7.018;2023-04-03T16:07:55;3.97;;;1.13;;
39098;SDS011;24844;52.380;7.018;2023-04-03T16:10:22;4.68;;;1.40;;
39098;SDS011;24844;52.380;7.018;2023-04-03T16:12:48;7.47;;;2.42;;
39098;SDS011;24844;52.380;7.018;2023-04-03T16:15:14;4.32;;;1.15;;
39098;SDS011;24844;52.380;7.018;2023-04-03T16:17:39;4.95;;;1.42;;
39098;SDS011;24844;52.380;7.018;2023-04-03T16:20:06;3.08;;;1.25;;
39098;SDS011;24844;52.380;7.018;2023-04-03T16:22:33;2.75;;;1.60;;
39098;SDS011;24844;52.380;7.018;2023-04-03T16:24:59;4.30;;;1.80;;
39098;SDS011;24844;52.380;7.018;2023-04-03T16:27:25;4.30;;;1.95;;
39098;SDS011;24844;52.380;7.018;2023-04-03T16:29:53;4.75;;;2.08;;
39098;SDS011;24844;52.380;7.018;2023-04-03T16:32:19;5.78;;;1.58;;
39098;SDS011;24844;52.380;7.018;2023-04-03T16:34:46;3.05;;;1.20;;
39098;SDS011;24844;52.380;7.018;2023-04-03T16:37:12;4.45;;;1.30;;
39098;SDS011;24844;52.380;7.018;2023-04-03T16:39:37;4.55;;;1.50;;
39098;SDS011;24844;52.380;7.018;2023-04-03T16:42:03;3.38;;;1.30;;